createdAt,value
2019-02-04T00:00:05.616Z,99.99
2019-02-04T00:01:05.640Z,99.99
2019-02-04T00:02:05.664Z,99.99
2019-02-04T00:03:05.685Z,99.99
2019-02-04T00:04:05.708Z,99.99
2019-02-04T00:05:05.733Z,99.99
2019-02-04T00:06:05.758Z,99.99
2019-02-04T00:07:05.782Z,99.99
2019-02-04T00:08:05.805Z,99.99
2019-02-04T00:09:05.827Z,99.99
2019-02-04T00:10:05.853Z,99.99
2019-02-04T00:11:05.874Z,99.99
2019-02-04T00:12:05.898Z,99.99
2019-02-04T00:13:05.935Z,99.99
2019-02-04T00:14:05.947Z,99.99
2019-02-04T00:15:05.968Z,99.99
2019-02-04T00:16:05.993Z,99.99
2019-02-04T00:17:06.018Z,99.99
2019-02-04T00:18:06.043Z,99.99
2019-02-04T00:19:06.063Z,99.99
2019-02-04T00:20:06.086Z,99.99
2019-02-04T00:21:06.116Z,99.99
2019-02-04T00:22:06.136Z,99.99
2019-02-04T00:23:06.158Z,99.99
2019-02-04T00:24:06.182Z,99.99
2019-02-04T00:25:06.204Z,99.99
2019-02-04T00:26:06.230Z,99.99
2019-02-04T00:27:06.252Z,99.99
2019-02-04T00:28:06.277Z,99.99
2019-02-04T00:29:06.349Z,99.99
2019-02-04T00:30:06.323Z,99.99
2019-02-04T00:31:06.347Z,99.99
2019-02-04T00:32:06.369Z,99.99
2019-02-04T00:33:06.394Z,99.99
2019-02-04T00:34:06.418Z,99.99
2019-02-04T00:35:06.440Z,99.99
2019-02-04T00:36:06.464Z,99.99
2019-02-04T00:37:06.488Z,99.99
2019-02-04T00:38:06.511Z,99.99
2019-02-04T00:39:06.537Z,99.99
2019-02-04T00:40:06.558Z,99.99
2019-02-04T00:41:06.581Z,99.99
2019-02-04T00:42:06.606Z,99.99
2019-02-04T00:43:06.628Z,99.99
2019-02-04T00:44:06.653Z,99.99
2019-02-04T00:45:06.674Z,99.99
2019-02-04T00:46:06.699Z,99.99
2019-02-04T00:47:06.722Z,99.99
2019-02-04T00:48:06.746Z,99.99
2019-02-04T00:49:06.770Z,99.99
2019-02-04T00:50:06.794Z,99.99
2019-02-04T00:51:06.818Z,99.99
2019-02-04T00:52:06.840Z,99.99
2019-02-04T00:53:06.864Z,99.99
2019-02-04T00:54:07.838Z,99.99
2019-02-04T00:55:06.911Z,99.99
2019-02-04T00:56:06.934Z,99.99
2019-02-04T00:57:06.958Z,99.99
2019-02-04T00:58:06.982Z,99.99
2019-02-04T00:59:07.005Z,99.99
2019-02-04T01:00:07.032Z,99.99
2019-02-04T01:01:07.053Z,99.99
2019-02-04T01:02:07.078Z,99.99
2019-02-04T01:03:07.100Z,99.99
2019-02-04T01:04:07.124Z,99.99
2019-02-04T01:05:07.151Z,99.99
2019-02-04T01:06:07.171Z,99.99
2019-02-04T01:07:07.194Z,99.99
2019-02-04T01:08:07.220Z,99.99
2019-02-04T01:09:07.241Z,99.99
2019-02-04T01:10:07.267Z,99.99
2019-02-04T01:11:08.741Z,99.99
2019-02-04T01:12:07.314Z,99.99
2019-02-04T01:13:07.389Z,99.99
2019-02-04T01:14:07.361Z,99.99
2019-02-04T01:15:07.382Z,99.99
2019-02-04T01:16:07.407Z,99.99
2019-02-04T01:17:07.429Z,99.99
2019-02-04T01:18:07.454Z,99.99
2019-02-04T01:19:07.476Z,99.99
2019-02-04T01:20:07.500Z,99.99
2019-02-04T01:21:07.524Z,99.99
2019-02-04T01:22:07.548Z,99.99
2019-02-04T01:23:07.575Z,99.99
2019-02-04T01:24:07.593Z,99.99
2019-02-04T01:25:07.617Z,99.99
2019-02-04T01:26:07.641Z,99.99
2019-02-04T01:27:07.666Z,99.99
2019-02-04T01:28:07.687Z,99.99
2019-02-04T01:29:07.711Z,99.99
2019-02-04T01:30:07.734Z,99.99
2019-02-04T01:31:07.757Z,99.99
2019-02-04T01:32:07.781Z,99.99
2019-02-04T01:33:07.807Z,99.99
2019-02-04T01:34:07.828Z,99.99
2019-02-04T01:35:07.851Z,99.99
2019-02-04T01:36:07.876Z,99.99
2019-02-04T01:37:07.897Z,99.99
2019-02-04T01:38:07.922Z,99.99
2019-02-04T01:39:07.947Z,99.99
2019-02-04T01:40:07.972Z,99.99
2019-02-04T01:41:07.997Z,99.99
2019-02-04T01:42:08.017Z,99.99
2019-02-04T01:43:08.039Z,99.99
2019-02-04T01:44:08.066Z,99.99
2019-02-04T01:45:08.086Z,99.99
2019-02-04T01:46:08.109Z,99.99
2019-02-04T01:47:14.623Z,99.99
2019-02-04T01:48:08.155Z,99.99
2019-02-04T01:49:08.179Z,99.99
2019-02-04T01:50:08.204Z,99.99
2019-02-04T01:51:08.225Z,99.99
2019-02-04T01:52:08.248Z,99.99
2019-02-04T01:53:08.272Z,99.99
2019-02-04T01:54:08.296Z,99.99
2019-02-04T01:55:08.319Z,99.99
2019-02-04T01:56:08.342Z,99.99
2019-02-04T01:57:08.365Z,99.99
2019-02-04T01:58:08.390Z,99.99
2019-02-04T01:59:08.413Z,99.99
2019-02-04T02:00:08.435Z,99.99
2019-02-04T02:01:08.460Z,99.99
2019-02-04T02:02:08.482Z,99.99
2019-02-04T02:03:08.505Z,99.99
2019-02-04T02:04:08.529Z,99.99
2019-02-04T02:05:08.602Z,99.99
2019-02-04T02:06:08.574Z,99.99
2019-02-04T02:07:08.597Z,99.99
2019-02-04T02:08:08.628Z,99.99
2019-02-04T02:09:08.647Z,99.99
2019-02-04T02:10:08.667Z,99.99
2019-02-04T02:11:08.690Z,99.99
2019-02-04T02:12:08.712Z,99.99
2019-02-04T02:13:08.734Z,99.99
2019-02-04T02:14:08.758Z,99.99
2019-02-04T02:15:08.780Z,99.99
2019-02-04T02:16:08.897Z,99.99
2019-02-04T02:17:08.827Z,99.99
2019-02-04T02:18:08.850Z,99.99
2019-02-04T02:19:08.874Z,99.99
2019-02-04T02:20:08.897Z,99.99
2019-02-04T02:21:08.919Z,99.99
2019-02-04T02:22:08.942Z,99.99
2019-02-04T02:23:08.965Z,99.99
2019-02-04T02:24:08.988Z,99.99
2019-02-04T02:25:09.010Z,99.99
2019-02-04T02:26:09.032Z,99.99
2019-02-04T02:27:09.056Z,99.99
2019-02-04T02:28:09.078Z,99.99
2019-02-04T02:29:09.104Z,99.99
2019-02-04T02:30:09.126Z,99.99
2019-02-04T02:31:09.149Z,99.99
2019-02-04T02:32:09.171Z,99.99
2019-02-04T02:33:09.195Z,99.99
2019-02-04T02:34:09.217Z,99.99
2019-02-04T02:35:09.240Z,99.99
2019-02-04T02:36:09.261Z,99.99
2019-02-04T02:37:09.283Z,99.99
2019-02-04T02:38:09.306Z,99.99
2019-02-04T02:39:09.332Z,99.99
2019-02-04T02:40:09.351Z,99.99
2019-02-04T02:41:09.392Z,99.99
2019-02-04T02:42:09.396Z,99.99
2019-02-04T02:43:11.577Z,99.99
2019-02-04T02:44:09.441Z,99.99
2019-02-04T02:45:09.469Z,99.99
2019-02-04T02:46:09.487Z,99.99
2019-02-04T02:47:09.510Z,99.99
2019-02-04T02:48:09.534Z,99.99
2019-02-04T02:49:09.558Z,99.99
2019-02-04T02:50:09.578Z,99.99
2019-02-04T02:51:09.599Z,99.99
2019-02-04T02:52:09.624Z,99.99
2019-02-04T02:53:09.643Z,99.99
2019-02-04T02:54:09.671Z,99.99
2019-02-04T02:55:09.688Z,99.99
2019-02-04T02:56:09.721Z,99.99
2019-02-04T02:57:09.736Z,99.99
2019-02-04T02:58:09.756Z,99.99
2019-02-04T02:59:09.779Z,99.99
2019-02-04T03:00:09.801Z,99.99
2019-02-04T03:01:09.853Z,99.99
2019-02-04T03:02:09.853Z,99.99
2019-02-04T03:03:09.906Z,99.99
2019-02-04T03:04:09.895Z,99.99
2019-02-04T03:05:09.913Z,99.99
2019-02-04T03:06:09.937Z,99.99
2019-02-04T03:07:09.960Z,99.99
2019-02-04T03:08:09.978Z,99.99
2019-02-04T03:09:10.003Z,99.99
2019-02-04T03:10:10.025Z,99.99
2019-02-04T03:11:10.046Z,99.99
2019-02-04T03:12:10.069Z,99.99
2019-02-04T03:13:10.093Z,99.99
2019-02-04T03:14:10.115Z,99.99
2019-02-04T03:15:10.134Z,99.99
2019-02-04T03:16:10.158Z,99.99
2019-02-04T03:17:10.182Z,99.99
2019-02-04T03:18:10.204Z,99.99
2019-02-04T03:19:10.224Z,99.99
2019-02-04T03:20:10.248Z,99.99
2019-02-04T03:21:10.269Z,99.99
2019-02-04T03:22:10.292Z,99.99
2019-02-04T03:23:10.313Z,99.99
2019-02-04T03:24:10.347Z,99.99
2019-02-04T03:25:10.368Z,99.99
2019-02-04T03:26:10.400Z,99.99
2019-02-04T03:27:10.402Z,99.99
2019-02-04T03:28:10.428Z,99.99
2019-02-04T03:29:10.449Z,99.99
2019-02-04T03:30:10.485Z,99.99
2019-02-04T03:31:10.492Z,99.99
2019-02-04T03:32:10.519Z,99.99
2019-02-04T03:33:10.538Z,99.99
2019-02-04T03:34:10.558Z,99.99
2019-02-04T03:35:10.589Z,99.99
2019-02-04T03:36:10.602Z,99.99
2019-02-04T03:37:10.624Z,99.99
2019-02-04T03:38:10.648Z,99.99
2019-02-04T03:39:10.668Z,99.99
2019-02-04T03:40:10.692Z,99.99
2019-02-04T03:41:10.714Z,99.99
2019-02-04T03:42:10.735Z,99.99
2019-02-04T03:43:10.756Z,99.99
2019-02-04T03:44:10.778Z,99.99
2019-02-04T03:45:10.809Z,99.99
2019-02-04T03:46:10.823Z,99.99
2019-02-04T03:47:10.851Z,99.99
2019-02-04T03:48:10.870Z,99.99
2019-02-04T03:49:10.889Z,99.99
2019-02-04T03:50:10.911Z,99.99
2019-02-04T03:51:10.935Z,99.99
2019-02-04T03:52:10.955Z,99.99
2019-02-04T03:53:10.977Z,99.99
2019-02-04T03:54:11.000Z,99.99
2019-02-04T03:55:11.021Z,99.99
2019-02-04T03:56:11.100Z,99.99
2019-02-04T03:57:11.065Z,99.99
2019-02-04T03:58:11.088Z,99.99
2019-02-04T03:59:11.110Z,99.99
2019-02-04T04:00:11.131Z,99.99
2019-02-04T04:01:11.154Z,99.99
2019-02-04T04:02:11.175Z,99.99
2019-02-04T04:03:11.197Z,99.99
2019-02-04T04:04:11.219Z,99.99
2019-02-04T04:05:11.241Z,99.99
2019-02-04T04:06:11.263Z,99.99
2019-02-04T04:07:11.335Z,99.99
2019-02-04T04:08:11.307Z,99.99
2019-02-04T04:09:11.329Z,99.99
2019-02-04T04:10:11.350Z,99.99
2019-02-04T04:11:11.373Z,99.99
2019-02-04T04:12:11.394Z,99.99
2019-02-04T04:13:11.416Z,99.99
2019-02-04T04:14:11.450Z,99.99
2019-02-04T04:15:11.509Z,99.99
2019-02-04T04:16:11.482Z,99.99
2019-02-04T04:17:11.504Z,99.99
2019-02-04T04:18:15.848Z,99.99
2019-02-04T04:19:11.549Z,99.99
2019-02-04T04:20:11.569Z,99.99
2019-02-04T04:21:11.596Z,99.99
2019-02-04T04:22:11.616Z,99.99
2019-02-04T04:23:11.635Z,99.99
2019-02-04T04:24:11.658Z,99.99
2019-02-04T04:25:11.680Z,99.99
2019-02-04T04:26:11.701Z,99.99
2019-02-04T04:27:11.722Z,99.99
2019-02-04T04:28:11.748Z,99.99
2019-02-04T04:29:11.770Z,99.99
2019-02-04T04:30:11.792Z,99.99
2019-02-04T04:31:11.810Z,99.99
2019-02-04T04:32:11.833Z,99.99
2019-02-04T04:33:11.856Z,99.99
2019-02-04T04:34:11.877Z,99.99
2019-02-04T04:35:11.899Z,99.99
2019-02-04T04:36:11.921Z,99.99
2019-02-04T04:37:11.942Z,99.99
2019-02-04T04:38:11.964Z,99.99
2019-02-04T04:39:11.987Z,99.99
2019-02-04T04:40:12.009Z,99.99
2019-02-04T04:41:12.031Z,99.99
2019-02-04T04:42:12.052Z,99.99
2019-02-04T04:43:12.073Z,99.99
2019-02-04T04:44:12.095Z,99.99
2019-02-04T04:45:12.117Z,99.99
2019-02-04T04:46:12.139Z,99.99
2019-02-04T04:47:12.160Z,99.99
2019-02-04T04:48:12.183Z,99.99
2019-02-04T04:49:12.206Z,99.99
2019-02-04T04:50:12.228Z,99.99
2019-02-04T04:51:12.248Z,99.99
2019-02-04T04:52:12.271Z,99.99
2019-02-04T04:53:12.295Z,99.99
2019-02-04T04:54:12.314Z,99.99
2019-02-04T04:55:12.336Z,99.99
2019-02-04T04:56:12.359Z,99.99
2019-02-04T04:57:12.380Z,99.99
2019-02-04T04:58:12.403Z,99.99
2019-02-04T04:59:12.423Z,99.99
2019-02-04T05:00:12.445Z,99.99
2019-02-04T05:01:12.468Z,99.99
2019-02-04T05:02:12.490Z,99.99
2019-02-04T05:03:12.514Z,99.99
2019-02-04T05:04:12.533Z,99.99
2019-02-04T05:05:12.556Z,99.99
2019-02-04T05:06:12.578Z,99.99
2019-02-04T05:07:12.598Z,99.99
2019-02-04T05:08:12.620Z,99.99
2019-02-04T05:09:12.714Z,99.99
2019-02-04T05:10:12.666Z,99.99
2019-02-04T05:11:12.686Z,99.99
2019-02-04T05:12:12.708Z,99.99
2019-02-04T05:13:12.730Z,99.99
2019-02-04T05:14:12.751Z,99.99
2019-02-04T05:15:12.773Z,99.99
2019-02-04T05:16:12.795Z,99.99
2019-02-04T05:17:12.819Z,99.99
2019-02-04T05:18:12.839Z,99.99
2019-02-04T05:19:12.864Z,99.99
2019-02-04T05:20:12.884Z,99.99
2019-02-04T05:21:12.905Z,99.99
2019-02-04T05:22:12.928Z,99.99
2019-02-04T05:23:12.948Z,99.99
2019-02-04T05:24:12.970Z,99.99
2019-02-04T05:25:12.993Z,99.99
2019-02-04T05:26:13.015Z,99.99
2019-02-04T05:27:13.036Z,99.99
2019-02-04T05:28:13.059Z,99.99
2019-02-04T05:29:13.082Z,99.99
2019-02-04T05:30:13.103Z,99.99
2019-02-04T05:31:13.127Z,99.99
2019-02-04T05:32:13.147Z,99.99
2019-02-04T05:33:13.169Z,99.99
2019-02-04T05:34:13.192Z,99.99
2019-02-04T05:35:13.213Z,99.99
2019-02-04T05:36:13.233Z,99.99
2019-02-04T05:37:13.255Z,99.99
2019-02-04T05:38:13.278Z,99.99
2019-02-04T05:39:13.298Z,99.99
2019-02-04T05:40:13.320Z,99.99
2019-02-04T05:41:13.343Z,99.99
2019-02-04T05:42:13.365Z,99.99
2019-02-04T05:43:13.385Z,99.99
2019-02-04T05:44:13.407Z,99.99
2019-02-04T05:45:13.434Z,99.99
2019-02-04T05:46:13.452Z,99.99
2019-02-04T05:47:13.472Z,99.99
2019-02-04T05:48:13.497Z,99.99
2019-02-04T05:49:13.518Z,99.99
2019-02-04T05:50:13.553Z,99.99
2019-02-04T05:51:13.560Z,99.99
2019-02-04T05:52:13.582Z,99.99
2019-02-04T05:53:13.602Z,99.99
2019-02-04T05:54:13.625Z,99.99
2019-02-04T05:55:13.647Z,99.99
2019-02-04T05:56:13.668Z,99.99
2019-02-04T05:57:13.692Z,99.99
2019-02-04T05:58:13.714Z,99.99
2019-02-04T05:59:13.734Z,99.99
2019-02-04T06:00:13.767Z,99.99
2019-02-04T06:01:13.777Z,99.99
2019-02-04T06:02:13.800Z,99.99
2019-02-04T06:03:13.820Z,99.99
2019-02-04T06:04:13.843Z,99.99
2019-02-04T06:05:13.865Z,99.99
2019-02-04T06:06:13.889Z,99.99
2019-02-04T06:07:15.423Z,99.99
2019-02-04T06:08:13.930Z,99.99
2019-02-04T06:09:13.953Z,99.99
2019-02-04T06:10:13.974Z,99.99
2019-02-04T06:11:13.996Z,99.99
2019-02-04T06:12:14.018Z,99.99
2019-02-04T06:13:14.040Z,99.99
2019-02-04T06:14:14.062Z,99.99
2019-02-04T06:15:14.083Z,99.99
2019-02-04T06:16:14.105Z,99.99
2019-02-04T06:17:14.128Z,99.99
2019-02-04T06:18:14.148Z,99.99
2019-02-04T06:19:14.169Z,99.99
2019-02-04T06:20:14.193Z,99.99
2019-02-04T06:21:14.213Z,99.99
2019-02-04T06:22:14.242Z,99.99
2019-02-04T06:23:14.258Z,99.99
2019-02-04T06:24:14.280Z,99.99
2019-02-04T06:25:14.317Z,99.99
2019-02-04T06:26:14.373Z,99.99
2019-02-04T06:27:14.345Z,99.99
2019-02-04T06:28:14.379Z,99.99
2019-02-04T06:29:14.398Z,99.99
2019-02-04T06:30:14.409Z,99.99
2019-02-04T06:31:14.430Z,99.99
2019-02-04T06:32:14.452Z,99.99
2019-02-04T06:33:14.477Z,99.99
2019-02-04T06:34:14.496Z,99.99
2019-02-04T06:35:14.518Z,99.99
2019-02-04T06:36:14.541Z,99.99
2019-02-04T06:37:14.565Z,99.99
2019-02-04T06:38:14.583Z,99.99
2019-02-04T06:39:14.604Z,99.99
2019-02-04T06:40:14.627Z,99.99
2019-02-04T06:41:14.648Z,99.99
2019-02-04T06:42:14.669Z,99.99
2019-02-04T06:43:14.692Z,99.99
2019-02-04T06:44:14.713Z,99.99
2019-02-04T06:45:14.734Z,99.99
2019-02-04T06:46:14.757Z,99.99
2019-02-04T06:47:14.777Z,99.99
2019-02-04T06:48:14.799Z,99.99
2019-02-04T06:49:14.821Z,99.99
2019-02-04T06:50:14.842Z,99.99
2019-02-04T06:51:14.864Z,99.99
2019-02-04T06:52:14.886Z,99.99
2019-02-04T06:53:14.907Z,99.99
2019-02-04T06:54:14.932Z,99.99
2019-02-04T06:55:14.950Z,99.99
2019-02-04T06:56:14.972Z,99.99
2019-02-04T06:57:14.995Z,99.99
2019-02-04T06:58:15.015Z,99.99
2019-02-04T06:59:15.037Z,99.99
2019-02-04T07:00:15.058Z,99.99
2019-02-04T07:01:15.080Z,99.99
2019-02-04T07:02:15.102Z,99.99
2019-02-04T07:03:15.125Z,99.99
2019-02-04T07:04:15.147Z,99.99
2019-02-04T07:05:15.168Z,99.99
2019-02-04T07:06:15.189Z,99.99
2019-02-04T07:07:15.328Z,99.99
2019-02-04T07:08:15.231Z,99.99
2019-02-04T07:09:15.256Z,99.99
2019-02-04T07:10:15.276Z,99.99
2019-02-04T07:11:15.296Z,99.99
2019-02-04T07:12:15.321Z,99.99
2019-02-04T07:13:15.342Z,99.99
2019-02-04T07:14:15.362Z,99.99
2019-02-04T07:15:15.386Z,99.99
2019-02-04T07:16:15.406Z,99.99
2019-02-04T07:17:15.426Z,99.99
2019-02-04T07:18:15.448Z,99.99
2019-02-04T07:19:23.914Z,99.99
2019-02-04T07:20:15.491Z,99.99
2019-02-04T07:21:15.513Z,99.99
2019-02-04T07:22:15.537Z,99.99
2019-02-04T07:23:15.556Z,99.99
2019-02-04T07:24:15.578Z,99.99
2019-02-04T07:25:15.603Z,99.99
2019-02-04T07:26:15.623Z,99.99
2019-02-04T07:27:15.644Z,99.99
2019-02-04T07:28:15.666Z,99.99
2019-02-04T07:29:15.688Z,99.99
2019-02-04T07:30:15.710Z,99.99
2019-02-04T07:31:15.735Z,99.99
2019-02-04T07:32:15.828Z,99.99
2019-02-04T07:33:15.775Z,99.99
2019-02-04T07:34:15.798Z,99.99
2019-02-04T07:35:15.820Z,99.99
2019-02-04T07:36:15.843Z,99.99
2019-02-04T07:37:15.863Z,99.99
2019-02-04T07:38:15.887Z,99.99
2019-02-04T07:39:15.907Z,99.99
2019-02-04T07:40:15.930Z,99.99
2019-02-04T07:41:15.953Z,99.99
2019-02-04T07:42:15.975Z,99.99
2019-02-04T07:43:15.997Z,99.99
2019-02-04T07:44:17.373Z,99.99
2019-02-04T07:45:16.042Z,99.99
2019-02-04T07:46:16.065Z,99.99
2019-02-04T07:47:16.087Z,99.99
2019-02-04T07:48:16.111Z,99.99
2019-02-04T07:49:16.134Z,99.99
2019-02-04T07:50:16.156Z,99.99
2019-02-04T07:51:16.178Z,99.99
2019-02-04T07:52:16.203Z,99.99
2019-02-04T07:53:16.226Z,98.97
2019-02-04T07:54:16.249Z,98.40
2019-02-04T07:55:16.273Z,99.35
2019-02-04T07:56:16.295Z,99.99
2019-02-04T07:57:16.320Z,99.54
2019-02-04T07:58:16.343Z,98.21
2019-02-04T07:59:16.367Z,98.64
2019-02-04T08:00:16.390Z,98.21
2019-02-04T08:01:16.416Z,96.74
2019-02-04T08:02:16.440Z,96.79
2019-02-04T08:03:16.462Z,95.55
2019-02-04T08:04:16.487Z,95.84
2019-02-04T08:05:16.510Z,95.27
2019-02-04T08:06:16.536Z,94.74
2019-02-04T08:07:16.559Z,93.70
2019-02-04T08:08:16.586Z,93.23
2019-02-04T08:09:16.608Z,92.61
2019-02-04T08:10:16.642Z,91.85
2019-02-04T08:11:16.709Z,90.70
2019-02-04T08:12:16.683Z,90.47
2019-02-04T08:13:16.708Z,90.85
2019-02-04T08:14:16.732Z,91.61
2019-02-04T08:15:16.756Z,91.23
2019-02-04T08:16:16.781Z,92.08
2019-02-04T08:17:16.807Z,92.08
2019-02-04T08:18:16.833Z,93.41
2019-02-04T08:19:16.857Z,91.56
2019-02-04T08:20:16.884Z,91.56
2019-02-04T08:21:16.909Z,91.37
2019-02-04T08:22:16.935Z,91.51
2019-02-04T08:23:16.958Z,91.70
2019-02-04T08:24:16.986Z,89.70
2019-02-04T08:25:17.013Z,89.04
2019-02-04T08:26:17.037Z,87.23
2019-02-04T08:27:17.061Z,87.80
2019-02-04T08:28:17.088Z,87.71
2019-02-04T08:29:17.114Z,87.95
2019-02-04T08:30:17.142Z,88.66
2019-02-04T08:31:17.167Z,88.37
2019-02-04T08:32:17.193Z,89.04
2019-02-04T08:33:17.220Z,89.14
2019-02-04T08:34:17.245Z,88.70
2019-02-04T08:35:17.273Z,88.46
2019-02-04T08:36:17.299Z,86.18
2019-02-04T08:37:17.326Z,85.08
2019-02-04T08:38:17.353Z,86.32
2019-02-04T08:39:17.378Z,86.04
2019-02-04T08:40:17.404Z,86.13
2019-02-04T08:41:17.433Z,86.75
2019-02-04T08:42:17.459Z,85.60
2019-02-04T08:43:17.489Z,84.46
2019-02-04T08:44:17.512Z,84.08
2019-02-04T08:45:17.540Z,83.80
2019-02-04T08:46:17.567Z,83.61
2019-02-04T08:47:22.592Z,84.17
2019-02-04T08:48:17.622Z,84.04
2019-02-04T08:49:17.650Z,84.50
2019-02-04T08:50:17.678Z,82.45
2019-02-04T08:51:17.705Z,80.39
2019-02-04T08:52:17.732Z,79.15
2019-02-04T08:53:17.763Z,79.00
2019-02-04T08:54:17.788Z,78.67
2019-02-04T08:55:17.816Z,78.39
2019-02-04T08:56:17.844Z,79.10
2019-02-04T08:57:17.873Z,78.01
2019-02-04T08:58:17.903Z,78.47
2019-02-04T08:59:17.930Z,77.03
2019-02-04T09:00:17.960Z,75.26
2019-02-04T09:01:17.989Z,74.30
2019-02-04T09:02:18.020Z,73.69
2019-02-04T09:03:18.045Z,74.42
2019-02-04T09:04:18.074Z,75.09
2019-02-04T09:05:18.107Z,75.85
2019-02-04T09:06:18.133Z,75.57
2019-02-04T09:07:18.167Z,75.43
2019-02-04T09:08:18.193Z,76.33
2019-02-04T09:09:18.222Z,76.81
2019-02-04T09:10:18.253Z,77.00
2019-02-04T09:11:18.282Z,76.33
2019-02-04T09:12:18.311Z,76.23
2019-02-04T09:13:18.341Z,75.98
2019-02-04T09:14:18.371Z,75.60
2019-02-04T09:15:18.402Z,74.74
2019-02-04T09:16:18.431Z,74.69
2019-02-04T09:17:18.461Z,74.02
2019-02-04T09:18:18.494Z,73.67
2019-02-04T09:19:18.523Z,72.14
2019-02-04T09:20:18.557Z,71.36
2019-02-04T09:21:18.588Z,70.59
2019-02-04T09:22:18.616Z,69.44
2019-02-04T09:23:18.649Z,69.76
2019-02-04T09:24:18.677Z,68.33
2019-02-04T09:25:18.774Z,67.18
2019-02-04T09:26:18.740Z,67.79
2019-02-04T09:27:18.771Z,66.86
2019-02-04T09:28:18.806Z,66.89
2019-02-04T09:29:18.835Z,65.08
2019-02-04T09:30:18.867Z,62.93
2019-02-04T09:31:18.899Z,63.13
2019-02-04T09:32:18.932Z,63.60
2019-02-04T09:33:18.964Z,63.80
2019-02-04T09:34:18.998Z,63.54
2019-02-04T09:35:19.033Z,63.06
2019-02-04T09:36:19.061Z,61.91
2019-02-04T09:37:19.096Z,61.05
2019-02-04T09:38:19.128Z,61.15
2019-02-04T09:39:19.160Z,61.43
2019-02-04T09:40:19.194Z,61.24
2019-02-04T09:41:19.228Z,61.34
2019-02-04T09:42:19.261Z,61.56
2019-02-04T09:43:19.295Z,60.72
2019-02-04T09:44:19.328Z,61.56
2019-02-04T09:45:19.362Z,60.72
2019-02-04T09:46:19.397Z,60.92
2019-02-04T09:47:19.429Z,59.92
2019-02-04T09:48:19.465Z,58.77
2019-02-04T09:49:19.498Z,57.04
2019-02-04T09:50:21.893Z,56.76
2019-02-04T09:51:19.569Z,57.04
2019-02-04T09:52:19.603Z,56.65
2019-02-04T09:53:19.638Z,54.53
2019-02-04T09:54:19.676Z,52.92
2019-02-04T09:55:19.710Z,52.77
2019-02-04T09:56:19.747Z,52.34
2019-02-04T09:57:19.785Z,53.90
2019-02-04T09:58:19.819Z,54.35
2019-02-04T09:59:19.854Z,54.35
2019-02-04T10:00:19.891Z,55.60
2019-02-04T10:01:19.932Z,55.77
2019-02-04T10:02:19.965Z,56.24
2019-02-04T10:03:20.002Z,55.41
2019-02-04T10:04:20.038Z,53.80
2019-02-04T10:05:20.076Z,53.41
2019-02-04T10:06:20.113Z,55.16
2019-02-04T10:07:20.149Z,54.90
2019-02-04T10:08:20.186Z,55.00
2019-02-04T10:09:20.240Z,55.07
2019-02-04T10:10:20.267Z,55.83
2019-02-04T10:11:20.298Z,55.71
2019-02-04T10:12:20.365Z,54.97
2019-02-04T10:13:20.374Z,56.22
2019-02-04T10:14:20.411Z,57.65
2019-02-04T10:15:20.497Z,56.89
2019-02-04T10:16:20.486Z,56.29
2019-02-04T10:17:20.531Z,57.06
2019-02-04T10:18:20.602Z,57.56
2019-02-04T10:19:20.599Z,56.98
2019-02-04T10:20:20.659Z,56.92
2019-02-04T10:21:20.675Z,56.27
2019-02-04T10:22:20.761Z,55.38
2019-02-04T10:23:20.762Z,54.88
2019-02-04T10:24:20.791Z,56.51
2019-02-04T10:25:20.826Z,56.48
2019-02-04T10:26:20.900Z,57.65
2019-02-04T10:27:20.946Z,57.46
2019-02-04T10:28:20.951Z,57.06
2019-02-04T10:29:20.978Z,56.60
2019-02-04T10:30:21.045Z,55.86
2019-02-04T10:31:21.126Z,54.77
2019-02-04T10:32:21.096Z,55.08
2019-02-04T10:33:21.147Z,55.27
2019-02-04T10:34:21.191Z,52.43
2019-02-04T10:35:21.221Z,52.14
2019-02-04T10:36:21.259Z,52.12
2019-02-04T10:37:21.337Z,52.69
2019-02-04T10:38:21.319Z,52.60
2019-02-04T10:39:21.396Z,53.08
2019-02-04T10:40:21.397Z,53.58
2019-02-04T10:41:21.435Z,53.75
2019-02-04T10:42:21.479Z,53.66
2019-02-04T10:43:21.510Z,55.16
2019-02-04T10:44:21.580Z,57.18
2019-02-04T10:45:21.638Z,55.93
2019-02-04T10:46:21.626Z,54.37
2019-02-04T10:47:21.674Z,53.70
2019-02-04T10:48:21.722Z,55.71
2019-02-04T10:49:21.740Z,55.45
2019-02-04T10:50:21.778Z,54.04
2019-02-04T10:51:21.815Z,52.43
2019-02-04T10:52:21.861Z,51.67
2019-02-04T10:53:21.939Z,52.34
2019-02-04T10:54:21.931Z,52.48
2019-02-04T10:55:21.967Z,50.61
2019-02-04T10:56:22.051Z,50.99
2019-02-04T10:57:22.080Z,52.14
2019-02-04T10:58:22.123Z,53.41
2019-02-04T10:59:22.171Z,54.49
2019-02-04T11:00:22.160Z,52.62
2019-02-04T11:01:22.203Z,51.72
2019-02-04T11:02:22.282Z,51.33
2019-02-04T11:03:22.275Z,50.56
2019-02-04T11:04:22.319Z,49.99
2019-02-04T11:05:22.357Z,50.56
2019-02-04T11:06:22.414Z,48.74
2019-02-04T11:07:22.473Z,48.02
2019-02-04T11:08:22.529Z,49.82
2019-02-04T11:09:22.565Z,48.66
2019-02-04T11:10:22.651Z,48.71
2019-02-04T11:11:22.606Z,48.81
2019-02-04T11:12:22.642Z,49.07
2019-02-04T11:13:22.690Z,48.35
2019-02-04T11:14:22.750Z,49.05
2019-02-04T11:15:25.524Z,48.33
2019-02-04T11:16:22.821Z,47.36
2019-02-04T11:17:22.833Z,46.59
2019-02-04T11:18:22.911Z,45.56
2019-02-04T11:19:22.947Z,45.07
2019-02-04T11:20:22.969Z,45.95
2019-02-04T11:21:23.012Z,47.05
2019-02-04T11:22:23.022Z,47.29
2019-02-04T11:23:23.060Z,45.94
2019-02-04T11:24:23.137Z,45.18
2019-02-04T11:25:23.193Z,47.27
2019-02-04T11:26:23.189Z,48.07
2019-02-04T11:27:23.233Z,48.69
2019-02-04T11:28:23.304Z,48.88
2019-02-04T11:29:23.301Z,49.02
2019-02-04T11:30:23.386Z,50.32
2019-02-04T11:31:23.380Z,49.02
2019-02-04T11:32:23.463Z,46.79
2019-02-04T11:33:23.462Z,46.84
2019-02-04T11:34:23.616Z,47.24
2019-02-04T11:35:23.590Z,45.87
2019-02-04T11:36:23.623Z,47.20
2019-02-04T11:37:23.619Z,47.03
2019-02-04T11:38:23.712Z,47.20
2019-02-04T11:39:23.723Z,48.52
2019-02-04T11:40:23.753Z,48.43
2019-02-04T11:41:23.814Z,46.79
2019-02-04T11:42:23.823Z,46.93
2019-02-04T11:43:23.866Z,46.02
2019-02-04T11:44:23.915Z,46.96
2019-02-04T11:45:23.942Z,47.97
2019-02-04T11:46:23.977Z,46.43
2019-02-04T11:47:24.042Z,46.00
2019-02-04T11:48:24.097Z,48.09
2019-02-04T11:49:24.094Z,48.69
2019-02-04T11:50:24.135Z,48.69
2019-02-04T11:51:24.172Z,48.61
2019-02-04T11:52:24.212Z,47.77
2019-02-04T11:53:32.370Z,47.30
2019-02-04T11:54:24.294Z,47.08
2019-02-04T11:55:24.330Z,47.41
2019-02-04T11:56:24.368Z,48.33
2019-02-04T11:57:24.409Z,51.14
2019-02-04T11:58:24.452Z,51.61
2019-02-04T11:59:24.485Z,51.23
2019-02-04T12:00:24.526Z,49.10
2019-02-04T12:01:24.564Z,50.75
2019-02-04T12:02:34.403Z,50.87
2019-02-04T12:03:24.643Z,50.03
2019-02-04T12:04:24.679Z,49.57
2019-02-04T12:05:24.718Z,48.04
2019-02-04T12:06:24.758Z,47.49
2019-02-04T12:07:24.794Z,47.80
2019-02-04T12:08:24.832Z,46.31
2019-02-04T12:09:24.873Z,47.56
2019-02-04T12:10:24.912Z,47.75
2019-02-04T12:11:24.949Z,48.43
2019-02-04T12:12:24.988Z,47.94
2019-02-04T12:13:25.025Z,49.79
2019-02-04T12:14:25.064Z,49.17
2019-02-04T12:15:25.103Z,47.71
2019-02-04T12:16:25.142Z,49.19
2019-02-04T12:17:25.179Z,48.16
2019-02-04T12:18:25.218Z,46.59
2019-02-04T12:19:25.257Z,47.68
2019-02-04T12:20:25.297Z,47.15
2019-02-04T12:21:25.334Z,44.31
2019-02-04T12:22:25.377Z,42.97
2019-02-04T12:23:25.411Z,43.07
2019-02-04T12:24:25.451Z,43.23
2019-02-04T12:25:25.491Z,43.82
2019-02-04T12:26:25.530Z,42.53
2019-02-04T12:27:32.114Z,42.03
2019-02-04T12:28:25.608Z,43.59
2019-02-04T12:29:25.795Z,44.28
2019-02-04T12:30:25.687Z,43.55
2019-02-04T12:31:25.726Z,42.49
2019-02-04T12:32:25.767Z,41.22
2019-02-04T12:33:25.807Z,41.30
2019-02-04T12:34:25.847Z,40.81
2019-02-04T12:35:25.886Z,42.11
2019-02-04T12:36:25.926Z,41.27
2019-02-04T12:37:25.971Z,39.62
2019-02-04T12:38:26.007Z,40.22
2019-02-04T12:39:26.047Z,39.61
2019-02-04T12:40:26.093Z,38.87
2019-02-04T12:41:26.129Z,39.29
2019-02-04T12:42:26.170Z,40.69
2019-02-04T12:43:26.210Z,39.61
2019-02-04T12:44:26.251Z,40.03
2019-02-04T12:45:26.291Z,39.80
2019-02-04T12:46:26.334Z,38.78
2019-02-04T12:47:26.373Z,37.40
2019-02-04T12:48:26.414Z,36.74
2019-02-04T12:49:26.456Z,36.00
2019-02-04T12:50:26.497Z,34.45
2019-02-04T12:51:33.628Z,34.38
2019-02-04T12:52:26.581Z,33.92